Sedgwick Reserve, California Weather observations

Data are for 10 minute period ending at time listed.
 Day   Time   Solar   Ave.   Ave.  Ave.  Vector  Max.   Baro.   Total    
  of    of     Rad.   Air    Rel.  Wind   Wind   Wind  Press.  Precip.   
Year   Day            Temp.  Hum.  Speed  Dir.   Gust                    
2015   (PST)  Kw/m2    F      %     mph   deg.    mph    mb.     in.     
-------------------------------------------------------------------------
 243    0:00   0.00   55.3    85    2.8   348     7.4   969.7    0.00 
 243    0:10   0.00   55.7    86    1.5   263     3.4   969.7    0.00 
 243    0:20   0.00   55.4    86    1.8   278     5.3   969.7    0.00 
 243    0:30   0.00   55.3    86    1.2   343     2.9   969.6    0.00 
 243    0:40   0.00   54.6    86    2.0   335     4.9   969.6    0.00 
 243    0:50   0.00   54.8    87    1.7   355     4.2   969.6    0.00 
 243    1:00   0.00   55.3    87    1.5   331     4.2   969.6    0.00 
 243    1:10   0.00   54.7    86    2.7   334     5.2   969.4    0.00 
 243    1:20   0.00   55.3    87    1.9   294     4.7   969.3    0.00 
 243    1:30   0.00   54.8    87    2.3   350     5.3   969.3    0.00 
 243    1:40   0.00   54.6    87    1.3   346     6.8   969.4    0.00 
 243    1:50   0.00   54.9    87    1.8   354     3.7   969.3    0.00 
 243    2:00   0.00   54.2    88    1.6   301     3.8   969.3    0.00 
 243    2:10   0.00   54.7    88    1.3   262     3.3   969.3    0.00 
 243    2:20   0.00   54.3    88    2.4   316     4.2   969.4    0.00 
 243    2:30   0.00   53.7    89    0.7   339     2.5   969.4    0.00 
 243    2:40   0.00   53.3    90    2.0     3     3.9   969.3    0.00 
 243    2:50   0.00   53.5    90    0.3   305     2.0   969.3    0.00 
 243    3:00   0.00   53.2    90    0.1     5     1.5   969.4    0.00 
 243    3:10   0.00   52.9    90    0.3    12     1.5   969.5    0.00 
 243    3:20   0.00   52.8    91    1.7     5     3.0   969.5    0.00 
 243    3:30   0.00   52.6    91    0.7   325     1.9   969.4    0.00 
 243    3:40   0.00   52.3    92    1.0   355     3.3   969.5    0.00 
 243    3:50   0.00   52.2    92    1.7   349     3.7   969.5    0.00 
 243    4:00   0.00   52.3    92    1.1   258     2.2   969.5    0.00 
 243    4:10   0.00   52.3    92    0.0   233     0.4   969.5    0.00 
 243    4:20   0.00   52.0    92    0.0   233     0.1   969.7    0.00 
 243    4:30   0.00   52.1    93    0.1   233     0.7   969.8    0.00 
 243    4:40   0.00   51.4    92    0.1   233     0.9   969.9    0.00 
 243    4:50   0.00   51.2    93    0.1   233     0.7   970.0    0.00 
 243    5:00   0.00   51.2    93    0.6   233     1.0   970.1    0.00 
 243    5:10   0.00   51.3    93    0.2   233     1.5   970.1    0.00 
 243    5:20   0.00   51.0    94    0.5    11     1.8   970.1    0.00 
 243    5:30   0.00   50.8    94    0.2   236     1.3   970.2    0.00 
 243    5:40   0.00   50.8    94    0.9   259     2.0   970.3    0.00 
 243    5:50   0.01   50.8    94    0.3   114     1.0   970.5    0.00 
 243    6:00   0.02   51.0    94    0.1   113     0.6   970.6    0.00 
 243    6:10   0.06   51.2    94    0.7   257     1.4   970.6    0.00 
 243    6:20   0.09   51.9    92    1.1   288     1.8   970.7    0.00 
 243    6:30   0.12   53.0    91    2.6     3     3.6   970.8    0.00 
 243    6:40   0.14   54.8    89    1.4    28     2.9   971.0    0.00 
 243    6:50   0.17   57.1    85    1.2    44     2.0   970.9    0.00 
 243    7:00   0.21   58.9    80    0.5   147     1.4   970.9    0.00 
 243    7:10   0.24   60.9    77    0.1   181     1.0   970.9    0.00 
 243    7:20   0.28   62.9    73    0.2   181     0.8   970.9    0.00 
 243    7:30   0.31   64.5    71    0.5   159     2.3   971.0    0.00 
 243    7:40   0.34   64.6    70    1.5   134     3.1   971.0    0.00 
 243    7:50   0.37   65.9    67    2.0   122     4.5   971.1    0.00 
 243    8:00   0.41   66.0    67    3.1   132     5.0   971.3    0.00 
 243    8:10   0.44   67.0    65    2.5   127     4.4   971.5    0.00 
 243    8:20   0.47   68.1    62    3.2   128     5.8   971.5    0.00 
 243    8:30   0.50   68.9    61    3.2   126     5.0   971.6    0.00 
 243    8:40   0.53   69.9    60    4.0   128     6.7   971.7    0.00 
 243    8:50   0.56   69.4    62    5.1   139     7.2   971.8    0.00 
 243    9:00   0.59   70.4    60    4.5   126     7.7   971.8    0.00 
 243    9:10   0.61   71.6    58    3.9   136     7.4   971.8    0.00 
 243    9:20   0.64   71.6    58    3.7   140     7.3   971.9    0.00 
 243    9:30   0.67   72.4    57    3.9   144     7.3   971.9    0.00 
 243    9:40   0.69   73.5    55    4.1   154     9.0   971.9    0.00 
 243    9:50   0.72   75.1    52    4.0   122     8.0   971.8    0.00 
 243   10:00   0.74   76.4    50    4.4   140     7.9   971.7    0.00 
 243   10:10   0.76   76.3    50    4.9   184    10.8   971.7    0.00 
 243   10:20   0.77   76.1    50    5.7   189     8.8   971.7    0.00 
 243   10:30   0.79   77.2    47    5.0   212     9.6   971.7    0.00 
 243   10:40   0.81   78.2    45    4.2   203     9.0   971.7    0.00 
 243   10:50   0.82   78.3    44    6.2   237     9.6   971.5    0.00 
 243   11:00   0.83   78.8    44    5.8   223     9.3   971.4    0.00 
 243   11:10   0.84   79.7    43    6.6   194    12.4   971.3    0.00 
 243   11:20   0.81   80.7    42    6.0   218    10.9   971.2    0.00 
 243   11:30   0.86   81.4    41    6.5   216    11.5   971.1    0.00 
 243   11:40   0.86   81.6    42    7.7   214    13.7   971.0    0.00 
 243   11:50   0.86   81.2    42    9.0   207    15.3   970.9    0.00 
 243   12:00   0.86   81.9    41    6.4   219    14.0   970.8    0.00 
 243   12:10   0.86   82.8    40    7.4   230    12.6   970.6    0.00 
 243   12:20   0.86   83.1    40    7.3   187    13.7   970.6    0.00 
 243   12:30   0.86   83.8    39    8.9   202    18.8   970.6    0.00 
 243   12:40   0.85   83.2    40    9.3   228    17.0   970.6    0.00 
 243   12:50   0.84   83.5    40   10.1   212    17.8   970.5    0.00 
 243   13:00   0.83   83.6    40    9.6   212    18.3   970.4    0.00 
 243   13:10   0.82   83.4    40   11.3   249    18.3   970.4    0.00 
 243   13:20   0.81   84.0    39    9.6   222    18.0   970.4    0.00 
 243   13:30   0.80   83.9    39   10.6   251    17.5   970.4    0.00 
 243   13:40   0.78   83.9    38    8.7   265    16.1   970.4    0.00 
 243   13:50   0.76   84.0    38   10.1   265    15.6   970.3    0.00 
 243   14:00   0.74   83.8    39    9.6   274    17.1   970.2    0.00 
 243   14:10   0.73   83.2    39   10.9   274    16.2   970.1    0.00 
 243   14:20   0.70   82.6    40   11.1   266    16.7   970.1    0.00 
 243   14:30   0.68   82.3    40   11.0   272    18.5   970.1    0.00 
 243   14:40   0.66   82.8    39   11.0   276    18.0   970.1    0.00 
 243   14:50   0.64   83.1    39    9.1   279    15.1   970.0    0.00 
 243   15:00   0.61   82.7    39   10.1   252    15.1   969.9    0.00 
 243   15:10   0.58   81.9    40   10.1   257    17.5   969.9    0.00 
 243   15:20   0.55   81.6    40   11.0   261    17.5   969.9    0.00 
 243   15:30   0.52   81.8    40   10.5   266    16.1   969.9    0.00 
 243   15:40   0.49   81.1    41   10.9   262    16.7   970.0    0.00 
 243   15:50   0.46   80.7    41   11.0   269    16.7   970.0    0.00 
 243   16:00   0.43   81.1    38    9.0   290    15.2   970.0    0.00 
 243   16:10   0.39   80.7    38    9.6   286    14.2   970.0    0.00 
 243   16:20   0.36   80.1    39    8.9   286    14.2   970.0    0.00 
 243   16:30   0.32   79.6    40    8.8   282    14.2   969.9    0.00 
 243   16:40   0.29   78.2    44   10.9   276    16.8   969.9    0.00 
 243   16:50   0.25   77.1    46    9.5   272    17.0   969.9    0.00 
 243   17:00   0.22   76.7    46    9.4   268    13.6   970.0    0.00 
 243   17:10   0.18   76.0    48    7.5   268    14.0   970.0    0.00 
 243   17:20   0.14   74.8    50    9.9   271    14.9   970.0    0.00 
 243   17:30   0.11   73.4    53   10.3   271    16.4   969.9    0.00 
 243   17:40   0.08   72.7    55    5.9   275    12.4   969.8    0.00 
 243   17:50   0.07   72.0    56    5.6   276    12.3   969.8    0.00 
 243   18:00   0.04   70.9    59    6.9   262    11.0   969.9    0.00 
 243   18:10   0.03   69.7    61    5.6   272    11.0   969.9    0.00 
 243   18:20   0.01   68.5    64    6.1   271    11.6   969.9    0.00 
 243   18:30   0.00   67.2    67    7.8   266    12.6   969.9    0.00 
 243   18:40   0.00   66.5    69    6.9   258    11.0   969.8    0.00 
 243   18:50   0.00   65.8    71    5.2   260     8.0   969.8    0.00 
 243   19:00   0.00   65.3    72    4.9   258     8.7   969.8    0.00 
 243   19:10   0.00   64.8    73    3.9   263     6.1   969.8    0.00 
 243   19:20   0.00   64.1    74    3.4   225     5.5   970.0    0.00 
 243   19:30   0.00   63.0    78    3.8   223     5.8   970.1    0.00 
 243   19:40   0.00   62.4    79    3.8   223     5.9   970.2    0.00 
 243   19:50   0.00   62.0    80    4.6   246     5.9   970.2    0.00 
 243   20:00   0.00   61.7    81    2.7   246     5.0   970.3    0.00 
 243   20:10   0.00   61.4    81    2.0   147     3.1   970.4    0.00 
 243   20:20   0.00   61.1    82    2.3   177     2.9   970.4    0.00 
 243   20:30   0.00   60.5    82    1.4   226     2.4   970.5    0.00 
 243   20:40   0.00   60.0    82    0.1   231     0.9   970.5    0.00 
 243   20:50   0.00   59.6    82    0.1   248     0.7   970.5    0.00 
 243   21:00   0.00   59.1    84    0.5   314     1.5   970.5    0.00 
 243   21:10   0.00   58.3    82    0.0     0     0.0   970.5    0.00 
 243   21:20   0.00   58.0    85    0.0   341     0.2   970.4    0.00 
 243   21:30   0.00   57.7    85    0.0     0     0.0   970.4    0.00 
 243   21:40   0.00   57.2    86    1.2    26     2.3   970.5    0.00 
 243   21:50   0.00   57.0    88    1.6    19     2.5   970.5    0.00 
 243   22:00   0.00   56.6    88    1.9    11     2.6   970.5    0.00 
 243   22:10   0.00   56.2    89    1.6     0     2.1   970.4    0.00 
 243   22:20   0.00   56.3    88    1.1   300     1.7   970.4    0.00 
 243   22:30   0.00   55.9    88    0.3   358     2.0   970.5    0.00 
 243   22:40   0.00   55.0    87    0.8   352     2.3   970.6    0.00 
 243   22:50   0.00   54.7    87    1.7   359     3.3   970.6    0.00 
 243   23:00   0.00   54.4    88    2.2   354     3.1   970.6    0.00 
 243   23:10   0.00   54.5    87    0.2   327     2.0   970.6    0.00 
 243   23:20   0.00   54.7    88    0.2   338     1.5   970.6    0.00 
 243   23:30   0.00   54.2    88    1.2   338     2.2   970.7    0.00 
 243   23:40   0.00   53.8    87    0.8   296     2.0   970.6    0.00 

Return to Sedgwick Reserve graphs page.


Western Regional Climate Center,wrcc@dri.edu